Terminal Aerodrome Forecast
Issued by NWS Louisville, KY

Home | Current Version | Previous Version | Text Only | Print | Product List | Glossary On
Versions: 1 2 3 4 5 6 7 8 9 10 11 12 13 14 15
000
FTUS43 KLMK 301013 AAA
TAFSDF
TAF AMD
KSDF 301013Z 3010/0112 VRB04KT P6SM FEW015 BKN035
     FM301200 25006KT P6SM BKN015
     FM301800 26010KT P6SM BKN035=

USA.gov is the U.S. government's official web portal to all federal, state and local government web resources and services.